Time;durP1;ratioP1;P1;durP2;ratioP2;P2;SDS_P1;SDS_P2;PMS_P1;PMS_P2;Temp;Humidity;BMP_temperature;BMP_pressure;BME280_temperature;BME280_humidity;BME280_pressure;Samples;Min_cycle;Max_cycle;Signal;HPM_P1;HPM_P2
2023/08/22 00:01:48;;;;;;;2.22;1.75;;;;;;;;;;4984417;28;20316;-86
2023/08/22 00:04:13;;;;;;;2.92;1.45;;;;;;;;;;4969435;28;20302;-85
2023/08/22 00:06:43;;;;;;;2.28;1.50;;;;;;;;;;4994874;28;20227;-85
2023/08/22 00:09:11;;;;;;;1.90;1.55;;;;;;;;;;5008933;28;20223;-85
2023/08/22 00:11:37;;;;;;;1.48;1.33;;;;;;;;;;4981251;28;20225;-84
2023/08/22 00:14:03;;;;;;;2.80;1.58;;;;;;;;;;5007749;28;20242;-85
2023/08/22 00:16:30;;;;;;;3.28;1.65;;;;;;;;;;4976670;28;20222;-86
2023/08/22 00:18:56;;;;;;;2.03;1.73;;;;;;;;;;4995457;28;20208;-87
2023/08/22 00:21:24;;;;;;;2.03;1.70;;;;;;;;;;4994668;28;20220;-85
2023/08/22 00:23:52;;;;;;;1.63;1.40;;;;;;;;;;4991178;28;20223;-85
2023/08/22 00:26:22;;;;;;;2.10;1.60;;;;;;;;;;4996473;28;20247;-85
2023/08/22 00:28:50;;;;;;;9.30;1.40;;;;;;;;;;4998555;28;20219;-85
2023/08/22 00:31:21;;;;;;;6.30;1.52;;;;;;;;;;5002493;28;20235;-85
2023/08/22 00:33:46;;;;;;;1.70;1.30;;;;;;;;;;4970692;28;20232;-85
2023/08/22 00:36:15;;;;;;;2.47;1.55;;;;;;;;;;4983843;28;20215;-85
2023/08/22 00:38:40;;;;;;;2.13;1.55;;;;;;;;;;4983135;28;20224;-86
2023/08/22 00:41:06;;;;;;;5.32;1.80;;;;;;;;;;5018806;28;20230;-85
2023/08/22 00:43:34;;;;;;;2.15;1.80;;;;;;;;;;4999269;28;20306;-86
2023/08/22 00:46:02;;;;;;;2.40;1.75;;;;;;;;;;5021961;28;20279;-86
2023/08/22 00:48:30;;;;;;;3.10;1.80;;;;;;;;;;4970392;28;20217;-85
2023/08/22 00:51:04;;;;;;;2.50;1.52;;;;;;;;;;4999102;28;20216;-86
2023/08/22 00:53:32;;;;;;;2.45;1.63;;;;;;;;;;5002690;28;20603;-86
2023/08/22 00:55:57;;;;;;;1.55;1.45;;;;;;;;;;4980831;28;20255;-86
2023/08/22 00:58:23;;;;;;;3.38;1.80;;;;;;;;;;5018088;28;20232;-86
2023/08/22 01:00:48;;;;;;;1.70;1.52;;;;;;;;;;4987339;28;20689;-86
2023/08/22 01:03:14;;;;;;;2.08;1.63;;;;;;;;;;4983284;28;20237;-86
2023/08/22 01:05:43;;;;;;;1.83;1.67;;;;;;;;;;5001909;28;20223;-86
2023/08/22 01:08:14;;;;;;;1.92;1.40;;;;;;;;;;4966131;28;20233;-85
2023/08/22 01:10:46;;;;;;;2.55;1.60;;;;;;;;;;4968894;28;21218;-86
2023/08/22 01:13:19;;;;;;;1.50;1.40;;;;;;;;;;4964505;28;20233;-85
2023/08/22 01:15:47;;;;;;;2.00;1.52;;;;;;;;;;5003862;28;20220;-84
2023/08/22 01:18:15;;;;;;;2.15;1.60;;;;;;;;;;5021896;28;20216;-86
2023/08/22 01:20:41;;;;;;;2.55;1.60;;;;;;;;;;5002114;28;20257;-86
2023/08/22 01:23:12;;;;;;;2.42;1.60;;;;;;;;;;4991031;28;20227;-86
2023/08/22 01:25:40;;;;;;;1.83;1.70;;;;;;;;;;5009532;28;20224;-86
2023/08/22 01:28:18;;;;;;;4.07;1.73;;;;;;;;;;5007917;28;20303;-86
2023/08/22 01:31:04;;;;;;;1.77;1.67;;;;;;;;;;5004242;28;20244;-86
2023/08/22 01:33:33;;;;;;;3.55;1.58;;;;;;;;;;5013720;28;20242;-84
2023/08/22 01:36:06;;;;;;;1.95;1.65;;;;;;;;;;4988718;28;20274;-85
2023/08/22 01:38:31;;;;;;;1.90;1.42;;;;;;;;;;4984928;28;20918;-84
2023/08/22 01:41:02;;;;;;;1.63;1.50;;;;;;;;;;5014833;28;20235;-85
2023/08/22 01:43:30;;;;;;;2.08;1.67;;;;;;;;;;4985382;28;20285;-85
2023/08/22 01:45:56;;;;;;;1.92;1.67;;;;;;;;;;4988331;28;20216;-85
2023/08/22 01:48:21;;;;;;;2.15;1.75;;;;;;;;;;4985207;28;20286;-86
2023/08/22 01:50:47;;;;;;;3.05;1.50;;;;;;;;;;4972880;28;20221;-87
2023/08/22 01:53:19;;;;;;;1.60;1.52;;;;;;;;;;5003439;28;20220;-86
2023/08/22 01:55:47;;;;;;;3.90;1.88;;;;;;;;;;4989010;28;20709;-84
2023/08/22 01:58:15;;;;;;;1.25;1.20;;;;;;;;;;5003498;28;20212;-85
2023/08/22 02:00:46;;;;;;;2.15;1.70;;;;;;;;;;4988979;28;20222;-85
2023/08/22 02:03:15;;;;;;;3.20;1.90;;;;;;;;;;4975844;28;20227;-85
2023/08/22 02:05:43;;;;;;;1.63;1.52;;;;;;;;;;4990399;28;20221;-84
2023/08/22 02:08:12;;;;;;;3.55;1.67;;;;;;;;;;4979862;28;20284;-86
2023/08/22 02:10:38;;;;;;;3.33;2.03;;;;;;;;;;4982154;28;21161;-84
2023/08/22 02:13:06;;;;;;;1.80;1.70;;;;;;;;;;4971931;28;20216;-86
2023/08/22 02:15:34;;;;;;;1.98;1.45;;;;;;;;;;4987279;28;20288;-84
2023/08/22 02:18:02;;;;;;;2.58;1.70;;;;;;;;;;4972465;28;20220;-85
2023/08/22 02:20:30;;;;;;;1.65;1.55;;;;;;;;;;5000290;28;20217;-86
2023/08/22 02:22:56;;;;;;;2.03;1.73;;;;;;;;;;5017055;28;20234;-85
2023/08/22 02:25:21;;;;;;;2.88;1.65;;;;;;;;;;5003993;28;20234;-85
2023/08/22 02:27:47;;;;;;;1.52;1.35;;;;;;;;;;4989923;28;20235;-86
2023/08/22 02:30:15;;;;;;;8.90;1.77;;;;;;;;;;4989101;28;20204;-87
2023/08/22 02:32:43;;;;;;;2.85;1.83;;;;;;;;;;5003320;28;20224;-85
2023/08/22 02:35:09;;;;;;;2.03;1.83;;;;;;;;;;5009351;28;20628;-86
2023/08/22 02:37:37;;;;;;;1.85;1.60;;;;;;;;;;4989901;28;20216;-86
2023/08/22 02:40:08;;;;;;;1.88;1.77;;;;;;;;;;4997936;28;20219;-86
2023/08/22 02:42:33;;;;;;;4.03;1.75;;;;;;;;;;4982254;28;20216;-85
2023/08/22 02:45:02;;;;;;;3.65;1.70;;;;;;;;;;4984963;28;20705;-84
2023/08/22 02:47:28;;;;;;;2.60;2.33;;;;;;;;;;4988709;28;20221;-84
2023/08/22 02:49:56;;;;;;;1.80;1.58;;;;;;;;;;4985631;28;20226;-83
2023/08/22 02:52:24;;;;;;;2.92;1.42;;;;;;;;;;4968261;28;20673;-84
2023/08/22 02:54:53;;;;;;;2.45;1.60;;;;;;;;;;4970098;28;20250;-83
2023/08/22 02:57:21;;;;;;;3.85;1.73;;;;;;;;;;4988857;28;20225;-84
2023/08/22 02:59:49;;;;;;;3.33;1.60;;;;;;;;;;4982021;28;20220;-84
2023/08/22 03:02:19;;;;;;;4.72;1.80;;;;;;;;;;4985854;28;20212;-83
2023/08/22 03:04:47;;;;;;;2.15;1.80;;;;;;;;;;4966695;28;20212;-84
2023/08/22 03:07:13;;;;;;;2.88;1.60;;;;;;;;;;4984045;28;20299;-85
2023/08/22 03:09:39;;;;;;;6.68;1.60;;;;;;;;;;5001209;28;20218;-83
2023/08/22 03:12:07;;;;;;;3.42;1.80;;;;;;;;;;5031413;28;20200;-83
2023/08/22 03:14:34;;;;;;;2.35;1.70;;;;;;;;;;5027932;28;20217;-83
2023/08/22 03:17:05;;;;;;;4.65;1.65;;;;;;;;;;5002187;28;20260;-84
2023/08/22 03:19:31;;;;;;;3.50;2.10;;;;;;;;;;5006717;28;20316;-84
2023/08/22 03:22:03;;;;;;;2.33;1.90;;;;;;;;;;5000586;28;20205;-84
2023/08/22 03:24:32;;;;;;;3.33;1.65;;;;;;;;;;4974994;28;20231;-85
2023/08/22 03:27:00;;;;;;;3.83;1.50;;;;;;;;;;5018853;28;20238;-84
2023/08/22 03:29:29;;;;;;;1.88;1.77;;;;;;;;;;5002992;28;20220;-84
2023/08/22 03:31:57;;;;;;;3.03;1.83;;;;;;;;;;4982481;28;20213;-85
2023/08/22 03:34:25;;;;;;;2.42;1.85;;;;;;;;;;4990057;28;20216;-87
2023/08/22 03:36:54;;;;;;;2.20;1.75;;;;;;;;;;4995075;28;20212;-86
2023/08/22 03:39:22;;;;;;;3.45;1.80;;;;;;;;;;5001773;28;20941;-88
2023/08/22 03:41:48;;;;;;;2.05;1.67;;;;;;;;;;5000160;28;20216;-87
2023/08/22 03:44:14;;;;;;;2.17;1.63;;;;;;;;;;4998973;28;20225;-86
2023/08/22 03:46:42;;;;;;;3.33;1.90;;;;;;;;;;4965769;28;20224;-80
2023/08/22 03:49:18;;;;;;;1.98;1.63;;;;;;;;;;4985849;28;20700;-81
2023/08/22 03:51:43;;;;;;;2.67;1.58;;;;;;;;;;4978976;28;20231;-80
2023/08/22 03:54:09;;;;;;;1.55;1.42;;;;;;;;;;4978609;28;20223;-79
2023/08/22 03:56:35;;;;;;;2.47;1.90;;;;;;;;;;4978632;28;20224;-79
2023/08/22 03:59:01;;;;;;;2.75;1.85;;;;;;;;;;5010780;28;20224;-79
2023/08/22 04:05:15;;;;;;;3.30;1.80;;;;;;;;;;5018713;28;20278;-78
2023/08/22 04:07:41;;;;;;;1.80;1.70;;;;;;;;;;4975965;28;20235;-80
2023/08/22 04:10:07;;;;;;;2.13;1.40;;;;;;;;;;4993998;28;20689;-80
2023/08/22 04:12:34;;;;;;;2.50;1.65;;;;;;;;;;4991538;28;20220;-80
2023/08/22 04:15:03;;;;;;;3.42;2.10;;;;;;;;;;4970466;28;20330;-81
2023/08/22 04:17:31;;;;;;;1.55;1.45;;;;;;;;;;4976809;28;20235;-80
2023/08/22 04:19:59;;;;;;;2.15;1.95;;;;;;;;;;4991103;28;20228;-79
2023/08/22 04:22:26;;;;;;;5.40;2.08;;;;;;;;;;4974682;28;20546;-80
2023/08/22 04:24:51;;;;;;;1.77;1.45;;;;;;;;;;4976826;28;20212;-80
2023/08/22 04:27:18;;;;;;;2.67;1.85;;;;;;;;;;4993047;28;20294;-80
2023/08/22 04:29:43;;;;;;;4.25;2.38;;;;;;;;;;4997732;28;20223;-79
2023/08/22 04:32:09;;;;;;;2.60;1.88;;;;;;;;;;4980039;28;20223;-80
2023/08/22 04:34:34;;;;;;;1.85;1.67;;;;;;;;;;4982156;28;20273;-79
2023/08/22 04:37:02;;;;;;;1.67;1.58;;;;;;;;;;4964338;28;20221;-80
2023/08/22 04:39:31;;;;;;;2.35;1.98;;;;;;;;;;5004490;28;20219;-79
2023/08/22 04:42:22;;;;;;;1.58;1.48;;;;;;;;;;5000937;28;20344;-78
2023/08/22 04:44:51;;;;;;;2.88;1.80;;;;;;;;;;4995104;28;20323;-79
2023/08/22 04:47:17;;;;;;;3.28;1.75;;;;;;;;;;5011287;28;20223;-77
2023/08/22 04:49:46;;;;;;;1.80;1.70;;;;;;;;;;5011316;28;20597;-78
2023/08/22 04:52:14;;;;;;;4.07;2.10;;;;;;;;;;4994142;28;20313;-76
2023/08/22 04:54:42;;;;;;;4.82;2.00;;;;;;;;;;4964247;28;20235;-77
2023/08/22 04:57:07;;;;;;;3.67;1.80;;;;;;;;;;5000084;28;20243;-77
2023/08/22 04:59:33;;;;;;;1.90;1.80;;;;;;;;;;5015317;28;20246;-79
2023/08/22 05:02:01;;;;;;;2.10;1.75;;;;;;;;;;4994067;28;20215;-77
2023/08/22 05:04:32;;;;;;;2.05;1.85;;;;;;;;;;4986222;28;20224;-79
2023/08/22 05:06:59;;;;;;;3.75;1.92;;;;;;;;;;5003195;28;20239;-77
2023/08/22 05:09:27;;;;;;;3.17;1.95;;;;;;;;;;4997593;28;20352;-77
2023/08/22 05:11:53;;;;;;;1.75;1.65;;;;;;;;;;5021857;28;20228;-79
2023/08/22 05:14:22;;;;;;;3.03;1.83;;;;;;;;;;4993239;28;20232;-79
2023/08/22 05:16:47;;;;;;;2.58;2.00;;;;;;;;;;4993561;28;20221;-79
2023/08/22 05:19:13;;;;;;;3.00;1.70;;;;;;;;;;4994947;28;20644;-78
2023/08/22 05:21:42;;;;;;;2.47;2.08;;;;;;;;;;5011788;28;20283;-79
2023/08/22 05:24:08;;;;;;;1.80;1.70;;;;;;;;;;5011223;28;20235;-79
2023/08/22 05:26:36;;;;;;;3.13;2.83;;;;;;;;;;5000665;28;20228;-80
2023/08/22 05:29:02;;;;;;;4.22;2.83;;;;;;;;;;5004309;28;20704;-79
2023/08/22 05:31:34;;;;;;;1.83;1.73;;;;;;;;;;4979973;28;20295;-77
2023/08/22 05:33:59;;;;;;;3.22;1.95;;;;;;;;;;4985159;28;20216;-79
2023/08/22 05:36:25;;;;;;;3.58;1.70;;;;;;;;;;4996341;28;20231;-78
2023/08/22 05:38:53;;;;;;;4.60;1.65;;;;;;;;;;4993866;28;20215;-78
2023/08/22 05:41:19;;;;;;;2.58;1.83;;;;;;;;;;4962124;28;20221;-79
2023/08/22 05:43:47;;;;;;;2.00;1.63;;;;;;;;;;4980099;28;20822;-76
2023/08/22 05:46:15;;;;;;;1.98;1.60;;;;;;;;;;4998166;28;20250;-78
2023/08/22 05:48:41;;;;;;;1.98;1.83;;;;;;;;;;5013332;28;20228;-77
2023/08/22 05:51:08;;;;;;;2.47;1.70;;;;;;;;;;4992946;28;20217;-77
2023/08/22 05:53:37;;;;;;;2.42;1.60;;;;;;;;;;4997137;28;20231;-79
2023/08/22 05:56:08;;;;;;;2.03;1.50;;;;;;;;;;4992612;28;20220;-79
2023/08/22 05:58:34;;;;;;;2.17;1.60;;;;;;;;;;4988614;28;20226;-79
2023/08/22 06:01:07;;;;;;;3.65;1.50;;;;;;;;;;4971348;28;20301;-79
2023/08/22 06:03:33;;;;;;;1.80;1.70;;;;;;;;;;4986346;28;20274;-79
2023/08/22 06:06:01;;;;;;;3.42;2.05;;;;;;;;;;5008176;28;20259;-77
2023/08/22 06:08:27;;;;;;;3.95;1.70;;;;;;;;;;4980916;28;20378;-79
2023/08/22 06:10:54;;;;;;;1.83;1.45;;;;;;;;;;4987298;28;20263;-79
2023/08/22 06:13:19;;;;;;;2.10;1.90;;;;;;;;;;4996992;28;20257;-78
2023/08/22 06:15:47;;;;;;;2.60;1.77;;;;;;;;;;4983271;28;20228;-78
2023/08/22 06:18:17;;;;;;;2.20;1.80;;;;;;;;;;4982296;28;20212;-79
2023/08/22 06:20:44;;;;;;;3.72;2.00;;;;;;;;;;4979361;28;20308;-78
2023/08/22 06:23:12;;;;;;;2.33;1.88;;;;;;;;;;4994199;28;20594;-78
2023/08/22 06:25:37;;;;;;;2.85;2.03;;;;;;;;;;4965465;28;20219;-78
2023/08/22 06:28:03;;;;;;;2.10;1.52;;;;;;;;;;4979690;28;20225;-78
2023/08/22 06:30:29;;;;;;;2.10;1.90;;;;;;;;;;5009423;28;20224;-79
2023/08/22 06:32:54;;;;;;;3.28;1.60;;;;;;;;;;4994064;28;20581;-78
2023/08/22 06:35:23;;;;;;;3.00;1.77;;;;;;;;;;4961932;28;20233;-78
2023/08/22 06:37:50;;;;;;;2.42;1.80;;;;;;;;;;4991848;28;20217;-78
2023/08/22 06:40:16;;;;;;;3.50;1.95;;;;;;;;;;4976397;28;20239;-78
2023/08/22 06:42:42;;;;;;;2.63;1.55;;;;;;;;;;4981561;28;20279;-78
2023/08/22 06:45:10;;;;;;;1.80;1.70;;;;;;;;;;4978427;28;20212;-79
2023/08/22 06:47:37;;;;;;;2.22;1.63;;;;;;;;;;4977694;28;20307;-79
2023/08/22 06:50:03;;;;;;;2.53;1.67;;;;;;;;;;4990965;28;20229;-78
2023/08/22 06:52:28;;;;;;;2.00;1.80;;;;;;;;;;4995588;28;20282;-79
2023/08/22 06:54:56;;;;;;;2.22;1.75;;;;;;;;;;4976852;28;20705;-79
2023/08/22 06:57:24;;;;;;;2.88;1.80;;;;;;;;;;4993374;28;20270;-79
2023/08/22 06:59:49;;;;;;;3.78;1.95;;;;;;;;;;4974734;28;20252;-79
2023/08/22 07:02:15;;;;;;;3.55;1.90;;;;;;;;;;4961270;28;20263;-78
2023/08/22 07:04:40;;;;;;;2.75;2.03;;;;;;;;;;4960181;28;20247;-79
2023/08/22 07:07:06;;;;;;;1.85;1.50;;;;;;;;;;4974787;28;20243;-77
2023/08/22 07:09:31;;;;;;;7.95;1.90;;;;;;;;;;4960521;28;20212;-77
2023/08/22 07:11:59;;;;;;;1.77;1.67;;;;;;;;;;4996315;28;20708;-78
2023/08/22 07:14:27;;;;;;;3.28;1.80;;;;;;;;;;5027778;28;20235;-79
2023/08/22 07:16:55;;;;;;;2.15;1.40;;;;;;;;;;4999000;28;20504;-79
2023/08/22 07:19:21;;;;;;;3.88;1.45;;;;;;;;;;5014777;28;20317;-79
2023/08/22 07:21:49;;;;;;;3.63;1.70;;;;;;;;;;5013068;28;20232;-79
2023/08/22 07:24:17;;;;;;;1.98;1.73;;;;;;;;;;4995571;28;20216;-79
2023/08/22 07:26:42;;;;;;;2.17;1.80;;;;;;;;;;5020787;28;20656;-79
2023/08/22 07:29:10;;;;;;;2.80;1.60;;;;;;;;;;4993967;28;20227;-78
2023/08/22 07:31:36;;;;;;;2.03;1.50;;;;;;;;;;4999948;28;20224;-80
2023/08/22 07:34:02;;;;;;;4.88;1.90;;;;;;;;;;5009224;28;20472;-80
2023/08/22 07:36:32;;;;;;;3.60;1.75;;;;;;;;;;5011685;28;20227;-80
2023/08/22 07:39:01;;;;;;;2.40;1.85;;;;;;;;;;4994121;28;20232;-80
2023/08/22 07:41:29;;;;;;;3.03;1.60;;;;;;;;;;5000544;28;20223;-80
2023/08/22 07:43:54;;;;;;;2.30;1.60;;;;;;;;;;5002159;28;20235;-79
2023/08/22 07:46:20;;;;;;;2.38;1.77;;;;;;;;;;4992881;28;20220;-80
2023/08/22 07:48:46;;;;;;;2.22;1.60;;;;;;;;;;4998171;28;20270;-79
2023/08/22 07:51:11;;;;;;;1.45;1.33;;;;;;;;;;4999420;28;20625;-80
2023/08/22 07:53:42;;;;;;;2.08;1.60;;;;;;;;;;4979059;28;20231;-79
2023/08/22 07:56:12;;;;;;;2.25;1.45;;;;;;;;;;5004805;28;20274;-77
2023/08/22 07:58:38;;;;;;;2.03;1.50;;;;;;;;;;5012064;28;20945;-78
2023/08/22 08:01:04;;;;;;;2.78;1.55;;;;;;;;;;5009294;28;20297;-78
2023/08/22 08:03:32;;;;;;;1.80;1.40;;;;;;;;;;4993150;28;20223;-79
2023/08/22 08:05:58;;;;;;;3.55;2.00;;;;;;;;;;4993107;28;20245;-78
2023/08/22 08:08:24;;;;;;;2.10;1.52;;;;;;;;;;4969571;28;20231;-79
2023/08/22 08:10:50;;;;;;;4.18;1.50;;;;;;;;;;4975774;28;20231;-79
2023/08/22 08:13:15;;;;;;;1.85;1.50;;;;;;;;;;5026123;28;20634;-79
2023/08/22 08:15:41;;;;;;;2.42;1.60;;;;;;;;;;5011214;28;20220;-80
2023/08/22 08:18:06;;;;;;;2.70;1.38;;;;;;;;;;5014927;28;20676;-78
2023/08/22 08:20:34;;;;;;;1.58;1.45;;;;;;;;;;4985362;28;20395;-78
2023/08/22 08:23:00;;;;;;;2.50;1.27;;;;;;;;;;4993073;28;20326;-79
2023/08/22 08:25:31;;;;;;;2.78;1.30;;;;;;;;;;5011213;28;20220;-79
2023/08/22 08:28:02;;;;;;;2.72;1.67;;;;;;;;;;4999231;28;20235;-80
2023/08/22 08:30:27;;;;;;;2.28;1.45;;;;;;;;;;4984465;28;20227;-80
2023/08/22 08:32:53;;;;;;;4.05;1.67;;;;;;;;;;4998647;28;20230;-80
2023/08/22 08:35:19;;;;;;;2.30;1.90;;;;;;;;;;5008281;28;20771;-80
2023/08/22 08:37:46;;;;;;;2.63;1.70;;;;;;;;;;5011580;28;20727;-77
2023/08/22 08:40:12;;;;;;;2.75;2.28;;;;;;;;;;5012082;28;20225;-79
2023/08/22 08:42:38;;;;;;;4.40;1.70;;;;;;;;;;4969622;28;20219;-79
2023/08/22 08:45:06;;;;;;;2.53;1.77;;;;;;;;;;4994998;28;20224;-80
2023/08/22 08:47:32;;;;;;;3.10;1.55;;;;;;;;;;4996167;28;20259;-80
2023/08/22 08:50:00;;;;;;;3.10;2.17;;;;;;;;;;4998878;28;20231;-80
2023/08/22 08:52:25;;;;;;;2.42;1.90;;;;;;;;;;4992786;28;20215;-79
2023/08/22 08:54:51;;;;;;;2.35;1.80;;;;;;;;;;4984502;28;20227;-80
2023/08/22 08:57:16;;;;;;;2.63;1.88;;;;;;;;;;5005533;28;20219;-77
2023/08/22 08:59:44;;;;;;;4.05;1.90;;;;;;;;;;4992479;28;21053;-80
2023/08/22 09:02:15;;;;;;;3.78;2.28;;;;;;;;;;4978495;28;20231;-80
2023/08/22 09:04:40;;;;;;;3.00;1.90;;;;;;;;;;5027505;28;20628;-80
2023/08/22 09:07:09;;;;;;;3.60;2.17;;;;;;;;;;4987180;28;20223;-78
2023/08/22 09:09:35;;;;;;;3.95;1.80;;;;;;;;;;4990830;28;20394;-80
2023/08/22 09:12:06;;;;;;;2.60;2.38;;;;;;;;;;5011321;28;20759;-80
2023/08/22 09:14:31;;;;;;;5.25;1.92;;;;;;;;;;5029413;28;20227;-79
2023/08/22 09:17:04;;;;;;;4.05;1.95;;;;;;;;;;5012360;28;20258;-80
2023/08/22 09:19:33;;;;;;;4.38;1.90;;;;;;;;;;4997296;28;20232;-80
2023/08/22 09:22:05;;;;;;;2.42;1.80;;;;;;;;;;4996824;28;20228;-80
2023/08/22 09:24:31;;;;;;;2.97;1.30;;;;;;;;;;4990215;28;20223;-78
2023/08/22 09:26:59;;;;;;;4.47;1.75;;;;;;;;;;4980616;28;20652;-79
2023/08/22 09:29:26;;;;;;;4.55;1.70;;;;;;;;;;5005813;28;20229;-79
2023/08/22 09:32:04;;;;;;;3.33;1.88;;;;;;;;;;4985339;28;20277;-79
2023/08/22 09:34:30;;;;;;;5.50;1.98;;;;;;;;;;4969150;28;20258;-80
2023/08/22 09:37:00;;;;;;;3.05;1.67;;;;;;;;;;5008925;28;20267;-80
2023/08/22 09:39:25;;;;;;;2.42;1.63;;;;;;;;;;5030194;28;20220;-77
2023/08/22 09:41:58;;;;;;;2.95;1.77;;;;;;;;;;4998558;28;20258;-80
2023/08/22 09:44:32;;;;;;;2.42;1.60;;;;;;;;;;4997167;28;20221;-81
2023/08/22 09:47:00;;;;;;;2.90;1.58;;;;;;;;;;4984207;28;20262;-79
2023/08/22 09:49:26;;;;;;;5.07;1.60;;;;;;;;;;4996495;28;20421;-79
2023/08/22 09:51:53;;;;;;;1.98;1.42;;;;;;;;;;4996820;28;20231;-79
2023/08/22 09:54:18;;;;;;;4.22;1.73;;;;;;;;;;5001722;28;20717;-79
2023/08/22 09:56:44;;;;;;;2.08;1.30;;;;;;;;;;5003415;28;20311;-81
2023/08/22 09:59:17;;;;;;;2.83;1.33;;;;;;;;;;5014403;28;20482;-80
2023/08/22 10:01:42;;;;;;;8.68;1.70;;;;;;;;;;4982078;28;20240;-77
2023/08/22 10:04:08;;;;;;;2.97;1.70;;;;;;;;;;5006582;28;20227;-82
2023/08/22 10:06:35;;;;;;;3.55;1.63;;;;;;;;;;5008277;28;20240;-82
2023/08/22 10:09:11;;;;;;;2.47;1.65;;;;;;;;;;4982400;28;20224;-82
2023/08/22 10:11:51;;;;;;;5.22;1.60;;;;;;;;;;4997794;28;20227;-80
2023/08/22 10:14:28;;;;;;;5.38;1.70;;;;;;;;;;4951702;28;20861;-81
2023/08/22 10:16:55;;;;;;;3.03;1.65;;;;;;;;;;4991738;28;20263;-82
2023/08/22 10:19:21;;;;;;;4.85;1.67;;;;;;;;;;4977895;28;20216;-82
2023/08/22 10:21:50;;;;;;;2.40;1.60;;;;;;;;;;4993713;28;20225;-81
2023/08/22 10:24:21;;;;;;;3.15;1.90;;;;;;;;;;5004577;28;20247;-79
2023/08/22 10:27:19;;;;;;;2.35;1.45;;;;;;;;;;5003178;28;20237;-80
2023/08/22 10:30:14;;;;;;;3.80;1.60;;;;;;;;;;5007410;28;20320;-81
2023/08/22 10:33:10;;;;;;;6.75;1.90;;;;;;;;;;4991487;28;20233;-82
2023/08/22 10:35:35;;;;;;;3.65;1.60;;;;;;;;;;4979371;28;20593;-80
2023/08/22 10:38:01;;;;;;;3.08;2.10;;;;;;;;;;4982330;28;20220;-80
2023/08/22 10:40:32;;;;;;;4.32;1.95;;;;;;;;;;4994414;28;20231;-81
2023/08/22 10:43:11;;;;;;;2.47;1.60;;;;;;;;;;4991957;28;20479;-80
2023/08/22 10:45:41;;;;;;;4.63;1.95;;;;;;;;;;5006046;28;20743;-81
2023/08/22 10:48:13;;;;;;;5.95;2.00;;;;;;;;;;4990185;28;20228;-80
2023/08/22 10:50:43;;;;;;;4.50;2.00;;;;;;;;;;4999391;28;20275;-83
2023/08/22 10:53:25;;;;;;;3.10;1.75;;;;;;;;;;5006497;28;20228;-82
2023/08/22 10:55:51;;;;;;;4.30;1.73;;;;;;;;;;4980371;28;20219;-81
2023/08/22 10:58:39;;;;;;;4.53;1.90;;;;;;;;;;4993001;28;20264;-81
2023/08/22 11:01:07;;;;;;;7.28;1.70;;;;;;;;;;4970017;28;20221;-82
2023/08/22 11:03:35;;;;;;;2.33;1.58;;;;;;;;;;4990872;28;20725;-82
2023/08/22 11:06:01;;;;;;;3.30;1.80;;;;;;;;;;5007323;28;20403;-82
2023/08/22 11:08:29;;;;;;;2.63;1.45;;;;;;;;;;4963346;28;20212;-81
2023/08/22 11:10:54;;;;;;;4.43;1.80;;;;;;;;;;4965999;28;20220;-81
2023/08/22 11:13:22;;;;;;;4.18;1.88;;;;;;;;;;5008292;28;20288;-80
2023/08/22 11:15:52;;;;;;;3.70;1.90;;;;;;;;;;5000506;28;20360;-82
2023/08/22 11:18:18;;;;;;;2.92;1.73;;;;;;;;;;4998438;28;20249;-79
2023/08/22 11:20:51;;;;;;;5.03;1.70;;;;;;;;;;4989267;28;20239;-80
2023/08/22 11:23:17;;;;;;;3.63;1.88;;;;;;;;;;4980017;28;20224;-82
2023/08/22 11:25:44;;;;;;;3.97;1.70;;;;;;;;;;4982445;28;20216;-81
2023/08/22 11:28:10;;;;;;;7.35;1.90;;;;;;;;;;4988851;28;20290;-82
2023/08/22 11:30:35;;;;;;;4.68;1.88;;;;;;;;;;5000820;28;20227;-81
2023/08/22 11:33:04;;;;;;;6.10;1.95;;;;;;;;;;4985650;28;20228;-81
2023/08/22 11:35:33;;;;;;;2.15;1.45;;;;;;;;;;5010055;28;20208;-78
2023/08/22 11:37:59;;;;;;;1.45;1.00;;;;;;;;;;5015820;28;20343;-79
2023/08/22 11:40:39;;;;;;;4.85;1.75;;;;;;;;;;4984188;28;20221;-78
2023/08/22 11:43:05;;;;;;;3.50;1.70;;;;;;;;;;5010618;23;20652;-75
2023/08/22 11:45:35;;;;;;;3.10;1.77;;;;;;;;;;5030608;28;20215;-76
2023/08/22 11:48:04;;;;;;;2.60;1.70;;;;;;;;;;5008180;28;20604;-76
2023/08/22 11:50:29;;;;;;;2.67;1.40;;;;;;;;;;4992604;28;20228;-74
2023/08/22 11:53:19;;;;;;;2.40;1.50;;;;;;;;;;4984804;28;20710;-76
2023/08/22 11:55:55;;;;;;;3.58;1.50;;;;;;;;;;5019453;28;20220;-75
2023/08/22 11:58:21;;;;;;;3.50;1.30;;;;;;;;;;5030632;28;20222;-76
2023/08/22 12:00:52;;;;;;;2.33;1.38;;;;;;;;;;5000318;28;20215;-77
2023/08/22 12:03:17;;;;;;;2.58;1.35;;;;;;;;;;4996841;28;20235;-76
2023/08/22 12:05:48;;;;;;;4.55;1.50;;;;;;;;;;4981044;28;20719;-75
2023/08/22 12:08:13;;;;;;;1.70;1.30;;;;;;;;;;5012512;28;20223;-75
2023/08/22 12:10:46;;;;;;;3.28;1.50;;;;;;;;;;5013592;28;20228;-73
2023/08/22 12:13:14;;;;;;;3.42;1.50;;;;;;;;;;4994516;28;20849;-76
2023/08/22 12:15:41;;;;;;;1.80;1.40;;;;;;;;;;5012331;28;20602;-74
2023/08/22 12:18:08;;;;;;;2.45;1.17;;;;;;;;;;4996514;28;20215;-74
2023/08/22 12:20:40;;;;;;;3.60;1.33;;;;;;;;;;4997370;28;20311;-75
2023/08/22 12:23:12;;;;;;;1.33;1.23;;;;;;;;;;5020015;28;20215;-76
2023/08/22 12:25:42;;;;;;;2.47;1.30;;;;;;;;;;4985806;28;20321;-74
2023/08/22 12:28:10;;;;;;;4.28;1.55;;;;;;;;;;5016989;28;20227;-75
2023/08/22 12:30:41;;;;;;;3.85;1.73;;;;;;;;;;4997654;28;20243;-73
2023/08/22 12:33:09;;;;;;;3.38;1.27;;;;;;;;;;5033513;28;20584;-73
2023/08/22 12:35:43;;;;;;;5.18;1.67;;;;;;;;;;5011278;28;20223;-73
2023/08/22 12:38:10;;;;;;;3.10;1.33;;;;;;;;;;4995908;28;20608;-73
2023/08/22 12:40:36;;;;;;;5.07;1.90;;;;;;;;;;5016401;28;20227;-73
2023/08/22 12:43:02;;;;;;;3.35;1.80;;;;;;;;;;5015317;28;20235;-73
2023/08/22 12:45:27;;;;;;;4.35;1.83;;;;;;;;;;5027773;28;20316;-76
2023/08/22 12:47:55;;;;;;;2.10;1.50;;;;;;;;;;4979373;28;20270;-76
2023/08/22 12:50:21;;;;;;;3.80;1.52;;;;;;;;;;5017937;28;20228;-76
2023/08/22 12:52:46;;;;;;;2.08;1.50;;;;;;;;;;5012655;28;20577;-75
2023/08/22 12:55:12;;;;;;;2.83;1.70;;;;;;;;;;5015626;28;20216;-76
2023/08/22 12:57:43;;;;;;;6.68;1.80;;;;;;;;;;5016149;28;20299;-75
2023/08/22 13:00:11;;;;;;;5.07;1.95;;;;;;;;;;5008356;28;20228;-73
2023/08/22 13:02:38;;;;;;;2.40;1.40;;;;;;;;;;5012310;28;20600;-73
2023/08/22 13:05:07;;;;;;;3.58;1.60;;;;;;;;;;5017868;28;20230;-74
2023/08/22 13:07:35;;;;;;;2.75;1.38;;;;;;;;;;5001906;28;20237;-75
2023/08/22 13:10:06;;;;;;;2.75;1.60;;;;;;;;;;5020359;28;20215;-73
2023/08/22 13:12:38;;;;;;;3.08;1.40;;;;;;;;;;5013150;28;20277;-74
2023/08/22 13:15:07;;;;;;;5.22;1.65;;;;;;;;;;5001809;28;20295;-73
2023/08/22 13:17:35;;;;;;;4.53;1.50;;;;;;;;;;5004110;28;20215;-74
2023/08/22 13:20:00;;;;;;;4.18;1.60;;;;;;;;;;5019641;28;20212;-74
2023/08/22 13:22:30;;;;;;;1.60;1.40;;;;;;;;;;5001302;28;20220;-74
2023/08/22 13:24:59;;;;;;;6.75;1.67;;;;;;;;;;5038728;28;20212;-75
2023/08/22 13:27:24;;;;;;;3.70;1.50;;;;;;;;;;5004359;28;20216;-75
2023/08/22 13:29:52;;;;;;;5.05;1.50;;;;;;;;;;5017904;28;20711;-74
2023/08/22 13:32:18;;;;;;;1.65;1.20;;;;;;;;;;5016925;28;20216;-75
2023/08/22 13:34:48;;;;;;;4.47;1.48;;;;;;;;;;5018662;28;20280;-75
2023/08/22 13:37:13;;;;;;;2.80;1.33;;;;;;;;;;4989556;28;20243;-75
2023/08/22 13:39:41;;;;;;;3.70;1.55;;;;;;;;;;5016150;28;20255;-75
2023/08/22 13:42:08;;;;;;;3.58;1.70;;;;;;;;;;5020342;28;20247;-76
2023/08/22 13:44:38;;;;;;;3.15;1.42;;;;;;;;;;4985661;28;21027;-75
2023/08/22 13:47:08;;;;;;;4.13;1.80;;;;;;;;;;5017891;28;20648;-75
2023/08/22 13:49:34;;;;;;;5.05;1.52;;;;;;;;;;5019485;28;20803;-75
2023/08/22 13:51:59;;;;;;;2.45;1.40;;;;;;;;;;5033940;28;20208;-75
2023/08/22 13:54:28;;;;;;;4.95;1.55;;;;;;;;;;5005226;28;20208;-74
2023/08/22 13:56:55;;;;;;;4.13;1.40;;;;;;;;;;5014895;28;20681;-75
2023/08/22 13:59:21;;;;;;;4.25;1.70;;;;;;;;;;5034442;28;20219;-74
2023/08/22 14:01:49;;;;;;;4.72;1.30;;;;;;;;;;5017461;28;20642;-75
2023/08/22 14:04:17;;;;;;;6.30;1.38;;;;;;;;;;5019634;28;20705;-74
2023/08/22 14:06:45;;;;;;;4.45;1.40;;;;;;;;;;5019388;28;20212;-75
2023/08/22 14:09:15;;;;;;;3.47;1.30;;;;;;;;;;5036996;28;20289;-74
2023/08/22 14:11:43;;;;;;;2.08;1.40;;;;;;;;;;5033849;28;20219;-74
2023/08/22 14:14:08;;;;;;;3.03;1.15;;;;;;;;;;5016725;28;20215;-75
2023/08/22 14:16:34;;;;;;;2.75;1.15;;;;;;;;;;5016391;28;20235;-74
2023/08/22 14:19:02;;;;;;;1.88;1.20;;;;;;;;;;5001693;28;20223;-74
2023/08/22 14:21:30;;;;;;;1.98;1.23;;;;;;;;;;5017031;28;20243;-73
2023/08/22 14:23:57;;;;;;;1.30;1.10;;;;;;;;;;4985945;28;20283;-73
2023/08/22 14:26:23;;;;;;;2.50;1.10;;;;;;;;;;5019547;28;20645;-73
2023/08/22 14:28:53;;;;;;;6.63;1.30;;;;;;;;;;4984541;28;20228;-74
2023/08/22 14:31:24;;;;;;;0.93;0.90;;;;;;;;;;4982481;28;20681;-73
2023/08/22 14:33:49;;;;;;;1.55;0.90;;;;;;;;;;5018888;28;20776;-74
2023/08/22 14:36:17;;;;;;;1.33;0.90;;;;;;;;;;5017921;28;20216;-73
2023/08/22 14:38:42;;;;;;;3.65;1.08;;;;;;;;;;5009575;28;20250;-74
2023/08/22 14:41:08;;;;;;;1.75;1.00;;;;;;;;;;5017655;28;20677;-74
2023/08/22 14:43:38;;;;;;;1.33;0.98;;;;;;;;;;5016896;28;20306;-74
2023/08/22 14:46:08;;;;;;;2.60;0.90;;;;;;;;;;5015819;28;20273;-74
2023/08/22 14:48:36;;;;;;;1.63;0.80;;;;;;;;;;5023254;28;20223;-74
2023/08/22 14:51:04;;;;;;;1.15;0.90;;;;;;;;;;4983962;28;20223;-74
2023/08/22 14:53:32;;;;;;;4.07;0.90;;;;;;;;;;5018560;28;20295;-74